sensor_id;sensor_type;location;lat;lon;timestamp;pressure;altitude;pressure_sealevel;temperature;humidity
38225;BME280;24025;48.138;11.428;2023-03-23T00:00:17;95077.94;;;11.06;55.13
38225;BME280;24025;48.138;11.428;2023-03-23T00:02:48;95069.19;;;11.05;55.23
38225;BME280;24025;48.138;11.428;2023-03-23T00:05:18;95073.00;;;11.12;55.67
38225;BME280;24025;48.138;11.428;2023-03-23T00:07:49;95074.53;;;11.09;56.19
38225;BME280;24025;48.138;11.428;2023-03-23T00:10:22;95073.00;;;11.04;56.37
38225;BME280;24025;48.138;11.428;2023-03-23T00:12:54;95075.25;;;11.02;56.38
38225;BME280;24025;48.138;11.428;2023-03-23T00:15:27;95072.19;;;11.00;56.17
38225;BME280;24025;48.138;11.428;2023-03-23T00:18:00;95077.13;;;10.95;55.60
38225;BME280;24025;48.138;11.428;2023-03-23T00:20:35;95079.78;;;10.95;56.43
38225;BME280;24025;48.138;11.428;2023-03-23T00:23:10;95070.63;;;10.92;57.43
38225;BME280;24025;48.138;11.428;2023-03-23T00:25:41;95078.25;;;10.94;56.71
38225;BME280;24025;48.138;11.428;2023-03-23T00:28:12;95069.88;;;10.88;56.69
38225;BME280;24025;48.138;11.428;2023-03-23T00:30:43;95070.63;;;10.89;55.87
38225;BME280;24025;48.138;11.428;2023-03-23T00:33:14;95076.69;;;10.86;55.79
38225;BME280;24025;48.138;11.428;2023-03-23T00:35:46;95066.03;;;10.86;56.81
38225;BME280;24025;48.138;11.428;2023-03-23T00:38:17;95071.75;;;10.81;56.21
38225;BME280;24025;48.138;11.428;2023-03-23T00:40:48;95069.84;;;10.81;56.12
38225;BME280;24025;48.138;11.428;2023-03-23T00:43:19;95066.78;;;10.79;56.61
38225;BME280;24025;48.138;11.428;2023-03-23T00:45:51;95068.66;;;10.75;56.41
38225;BME280;24025;48.138;11.428;2023-03-23T00:48:24;95069.81;;;10.74;56.82
38225;BME280;24025;48.138;11.428;2023-03-23T00:50:55;95077.03;;;10.73;56.67
38225;BME280;24025;48.138;11.428;2023-03-23T00:53:26;95074.38;;;10.73;57.62
38225;BME280;24025;48.138;11.428;2023-03-23T00:55:56;95069.41;;;10.75;56.71
38225;BME280;24025;48.138;11.428;2023-03-23T00:58:27;95068.28;;;10.76;56.60
38225;BME280;24025;48.138;11.428;2023-03-23T01:00:57;95071.34;;;10.78;57.40
38225;BME280;24025;48.138;11.428;2023-03-23T01:03:28;95061.03;;;10.77;57.25
38225;BME280;24025;48.138;11.428;2023-03-23T01:06:07;95061.41;;;10.75;57.68
38225;BME280;24025;48.138;11.428;2023-03-23T01:08:40;95067.13;;;10.74;57.45
38225;BME280;24025;48.138;11.428;2023-03-23T01:11:16;95062.16;;;10.69;56.98
38225;BME280;24025;48.138;11.428;2023-03-23T01:13:46;95059.91;;;10.74;57.05
38225;BME280;24025;48.138;11.428;2023-03-23T01:16:17;95063.31;;;10.71;56.69
38225;BME280;24025;48.138;11.428;2023-03-23T01:18:47;95058.34;;;10.66;56.99
38225;BME280;24025;48.138;11.428;2023-03-23T01:21:19;95059.84;;;10.67;57.41
38225;BME280;24025;48.138;11.428;2023-03-23T01:23:50;95059.09;;;10.67;57.43
38225;BME280;24025;48.138;11.428;2023-03-23T01:26:23;95059.84;;;10.60;57.82
38225;BME280;24025;48.138;11.428;2023-03-23T01:28:54;95048.41;;;10.63;57.03
38225;BME280;24025;48.138;11.428;2023-03-23T01:31:25;95052.56;;;10.57;58.03
38225;BME280;24025;48.138;11.428;2023-03-23T01:33:56;95046.09;;;10.58;57.60
38225;BME280;24025;48.138;11.428;2023-03-23T01:36:28;95046.88;;;10.59;58.32
38225;BME280;24025;48.138;11.428;2023-03-23T01:39:04;95052.97;;;10.59;57.89
38225;BME280;24025;48.138;11.428;2023-03-23T01:41:35;95044.97;;;10.59;58.15
38225;BME280;24025;48.138;11.428;2023-03-23T01:46:45;95045.38;;;10.61;58.20
38225;BME280;24025;48.138;11.428;2023-03-23T01:49:19;95053.72;;;10.53;57.73
38225;BME280;24025;48.138;11.428;2023-03-23T01:52:07;95051.81;;;10.53;58.42
38225;BME280;24025;48.138;11.428;2023-03-23T01:54:39;95052.91;;;10.48;59.30
38225;BME280;24025;48.138;11.428;2023-03-23T01:57:16;95050.19;;;10.41;58.20
38225;BME280;24025;48.138;11.428;2023-03-23T01:59:50;95045.25;;;10.40;59.42
38225;BME280;24025;48.138;11.428;2023-03-23T02:02:24;95042.56;;;10.40;59.41
38225;BME280;24025;48.138;11.428;2023-03-23T02:04:58;95041.44;;;10.41;59.31
38225;BME280;24025;48.138;11.428;2023-03-23T02:07:31;95034.59;;;10.40;59.54
38225;BME280;24025;48.138;11.428;2023-03-23T02:10:02;95031.53;;;10.41;59.46
38225;BME280;24025;48.138;11.428;2023-03-23T02:12:33;95033.09;;;10.46;59.56
38225;BME280;24025;48.138;11.428;2023-03-23T02:15:04;95038.41;;;10.42;60.06
38225;BME280;24025;48.138;11.428;2023-03-23T02:20:54;95028.47;;;10.36;60.14
38225;BME280;24025;48.138;11.428;2023-03-23T02:34:45;95026.53;;;10.33;59.86
38225;BME280;24025;48.138;11.428;2023-03-23T02:37:25;95029.22;;;10.33;60.14
38225;BME280;24025;48.138;11.428;2023-03-23T02:42:43;95031.47;;;10.31;60.26
38225;BME280;24025;48.138;11.428;2023-03-23T02:45:16;95022.34;;;10.28;59.87
38225;BME280;24025;48.138;11.428;2023-03-23T02:47:52;95020.44;;;10.29;60.08
38225;BME280;24025;48.138;11.428;2023-03-23T02:50:24;95027.25;;;10.23;60.20
38225;BME280;24025;48.138;11.428;2023-03-23T02:52:57;95019.59;;;10.17;61.19
38225;BME280;24025;48.138;11.428;2023-03-23T02:55:29;95021.13;;;10.18;60.78
38225;BME280;24025;48.138;11.428;2023-03-23T02:58:01;95018.78;;;10.13;60.91
38225;BME280;24025;48.138;11.428;2023-03-23T03:00:32;95021.50;;;10.17;61.12
38225;BME280;24025;48.138;11.428;2023-03-23T03:03:03;95022.25;;;10.17;60.68
38225;BME280;24025;48.138;11.428;2023-03-23T03:09:01;95010.03;;;10.09;61.35
38225;BME280;24025;48.138;11.428;2023-03-23T03:11:37;95019.16;;;10.08;61.44
38225;BME280;24025;48.138;11.428;2023-03-23T03:14:21;95006.97;;;10.07;61.51
38225;BME280;24025;48.138;11.428;2023-03-23T03:17:01;95014.59;;;10.09;61.21
38225;BME280;24025;48.138;11.428;2023-03-23T03:19:42;95004.31;;;10.11;61.13
38225;BME280;24025;48.138;11.428;2023-03-23T03:22:15;95010.78;;;10.13;61.00
38225;BME280;24025;48.138;11.428;2023-03-23T03:24:47;95010.78;;;10.10;61.16
38225;BME280;24025;48.138;11.428;2023-03-23T03:27:20;95009.63;;;10.07;61.84
38225;BME280;24025;48.138;11.428;2023-03-23T03:29:52;95008.50;;;10.08;61.82
38225;BME280;24025;48.138;11.428;2023-03-23T03:32:28;95026.72;;;10.06;61.50
38225;BME280;24025;48.138;11.428;2023-03-23T03:35:01;95021.06;;;10.08;61.33
38225;BME280;24025;48.138;11.428;2023-03-23T03:37:35;95020.25;;;10.04;61.43
38225;BME280;24025;48.138;11.428;2023-03-23T03:40:12;95021.75;;;10.01;61.42
38225;BME280;24025;48.138;11.428;2023-03-23T03:42:44;95016.81;;;10.03;61.65
38225;BME280;24025;48.138;11.428;2023-03-23T03:45:18;95019.81;;;9.98;62.16
38225;BME280;24025;48.138;11.428;2023-03-23T03:47:49;95033.94;;;10.02;61.82
38225;BME280;24025;48.138;11.428;2023-03-23T03:50:19;95035.09;;;10.01;61.78
38225;BME280;24025;48.138;11.428;2023-03-23T03:52:50;95032.03;;;10.03;61.33
38225;BME280;24025;48.138;11.428;2023-03-23T03:55:20;95033.94;;;10.02;61.34
38225;BME280;24025;48.138;11.428;2023-03-23T03:57:51;95043.06;;;10.01;62.56
38225;BME280;24025;48.138;11.428;2023-03-23T04:00:22;95035.09;;;10.05;62.12
38225;BME280;24025;48.138;11.428;2023-03-23T04:02:54;95038.91;;;10.04;62.49
38225;BME280;24025;48.138;11.428;2023-03-23T04:05:25;95038.91;;;10.04;61.83
38225;BME280;24025;48.138;11.428;2023-03-23T04:07:58;95039.69;;;10.08;61.89
38225;BME280;24025;48.138;11.428;2023-03-23T04:10:32;95040.84;;;10.10;62.00
38225;BME280;24025;48.138;11.428;2023-03-23T04:13:03;95042.75;;;10.10;61.94
38225;BME280;24025;48.138;11.428;2023-03-23T04:15:34;95045.81;;;10.12;62.04
38225;BME280;24025;48.138;11.428;2023-03-23T04:18:05;95040.50;;;10.15;61.89
38225;BME280;24025;48.138;11.428;2023-03-23T04:20:35;95042.81;;;10.17;61.62
38225;BME280;24025;48.138;11.428;2023-03-23T04:23:08;95042.81;;;10.20;61.49
38225;BME280;24025;48.138;11.428;2023-03-23T04:25:38;95050.06;;;10.20;61.41
38225;BME280;24025;48.138;11.428;2023-03-23T04:28:12;95048.56;;;10.23;61.69
38225;BME280;24025;48.138;11.428;2023-03-23T04:30:43;95051.94;;;10.19;61.73
38225;BME280;24025;48.138;11.428;2023-03-23T04:33:13;95052.72;;;10.20;61.24
38225;BME280;24025;48.138;11.428;2023-03-23T04:35:45;95067.22;;;10.23;61.97
38225;BME280;24025;48.138;11.428;2023-03-23T04:38:19;95055.38;;;10.20;62.01
38225;BME280;24025;48.138;11.428;2023-03-23T04:40:52;95059.56;;;10.21;61.60
38225;BME280;24025;48.138;11.428;2023-03-23T04:43:22;95049.66;;;10.21;61.96
38225;BME280;24025;48.138;11.428;2023-03-23T04:45:58;95041.34;;;10.23;61.95
38225;BME280;24025;48.138;11.428;2023-03-23T04:48:31;95051.56;;;10.21;61.45
38225;BME280;24025;48.138;11.428;2023-03-23T04:51:03;95061.13;;;10.22;60.53
38225;BME280;24025;48.138;11.428;2023-03-23T04:53:34;95059.66;;;10.28;60.82
38225;BME280;24025;48.138;11.428;2023-03-23T04:56:06;95060.41;;;10.29;60.49
38225;BME280;24025;48.138;11.428;2023-03-23T04:58:37;95057.75;;;10.29;60.75
38225;BME280;24025;48.138;11.428;2023-03-23T05:01:09;95052.41;;;10.29;60.91
38225;BME280;24025;48.138;11.428;2023-03-23T05:03:43;95055.84;;;10.26;60.80
38225;BME280;24025;48.138;11.428;2023-03-23T05:06:14;95057.38;;;10.30;60.56
38225;BME280;24025;48.138;11.428;2023-03-23T05:08:45;95055.47;;;10.27;60.68
38225;BME280;24025;48.138;11.428;2023-03-23T05:11:15;95058.50;;;10.26;60.55
38225;BME280;24025;48.138;11.428;2023-03-23T05:13:46;95058.78;;;10.17;60.75
38225;BME280;24025;48.138;11.428;2023-03-23T05:16:17;95072.47;;;10.15;60.92
38225;BME280;24025;48.138;11.428;2023-03-23T05:18:47;95076.31;;;10.21;61.07
38225;BME280;24025;48.138;11.428;2023-03-23T05:21:18;95067.59;;;10.25;61.48
38225;BME280;24025;48.138;11.428;2023-03-23T05:23:49;95069.94;;;10.33;60.73
38225;BME280;24025;48.138;11.428;2023-03-23T05:26:24;95074.50;;;10.26;60.71
38225;BME280;24025;48.138;11.428;2023-03-23T05:28:55;95087.03;;;10.25;60.75
38225;BME280;24025;48.138;11.428;2023-03-23T05:31:26;95090.88;;;10.31;60.84
38225;BME280;24025;48.138;11.428;2023-03-23T05:33:56;95080.25;;;10.35;60.95
38225;BME280;24025;48.138;11.428;2023-03-23T05:36:27;95075.69;;;10.35;61.16
38225;BME280;24025;48.138;11.428;2023-03-23T05:38:58;95080.28;;;10.42;60.86
38225;BME280;24025;48.138;11.428;2023-03-23T05:41:30;95063.50;;;10.38;62.40
38225;BME280;24025;48.138;11.428;2023-03-23T05:44:00;95057.03;;;10.39;62.03
38225;BME280;24025;48.138;11.428;2023-03-23T05:46:32;95036.47;;;10.39;61.74
38225;BME280;24025;48.138;11.428;2023-03-23T05:49:03;95031.16;;;10.36;61.55
38225;BME280;24025;48.138;11.428;2023-03-23T05:51:33;95024.28;;;10.35;61.48
38225;BME280;24025;48.138;11.428;2023-03-23T05:54:05;95018.16;;;10.31;62.34
38225;BME280;24025;48.138;11.428;2023-03-23T05:56:36;95009.41;;;10.30;62.27
38225;BME280;24025;48.138;11.428;2023-03-23T05:59:07;95011.28;;;10.26;62.61
38225;BME280;24025;48.138;11.428;2023-03-23T06:01:38;95003.69;;;10.32;61.88
38225;BME280;24025;48.138;11.428;2023-03-23T06:04:08;95009.03;;;10.32;61.94
38225;BME280;24025;48.138;11.428;2023-03-23T06:06:39;95018.53;;;10.33;61.71
38225;BME280;24025;48.138;11.428;2023-03-23T06:09:11;95020.47;;;10.36;62.02
38225;BME280;24025;48.138;11.428;2023-03-23T06:11:42;95028.53;;;10.43;61.64
38225;BME280;24025;48.138;11.428;2023-03-23T06:14:13;95047.56;;;10.48;61.17
38225;BME280;24025;48.138;11.428;2023-03-23T06:16:43;95049.91;;;10.54;61.02
38225;BME280;24025;48.138;11.428;2023-03-23T06:19:14;95052.19;;;10.59;60.62
38225;BME280;24025;48.138;11.428;2023-03-23T06:21:45;95057.56;;;10.66;60.03
38225;BME280;24025;48.138;11.428;2023-03-23T06:24:16;95061.03;;;10.73;59.99
38225;BME280;24025;48.138;11.428;2023-03-23T06:26:46;95053.81;;;10.77;59.38
38225;BME280;24025;48.138;11.428;2023-03-23T06:29:18;95045.47;;;10.86;58.82
38225;BME280;24025;48.138;11.428;2023-03-23T06:31:52;95041.69;;;10.94;58.91
38225;BME280;24025;48.138;11.428;2023-03-23T06:34:24;95033.31;;;10.99;58.61
38225;BME280;24025;48.138;11.428;2023-03-23T06:36:56;95025.31;;;11.03;58.77
38225;BME280;24025;48.138;11.428;2023-03-23T06:39:26;95029.91;;;11.10;59.35
38225;BME280;24025;48.138;11.428;2023-03-23T06:41:57;95022.31;;;11.15;59.05
38225;BME280;24025;48.138;11.428;2023-03-23T06:44:29;95010.50;;;11.16;59.37
38225;BME280;24025;48.138;11.428;2023-03-23T06:47:00;95010.13;;;11.18;59.20
38225;BME280;24025;48.138;11.428;2023-03-23T06:49:32;95009.34;;;11.17;59.54
38225;BME280;24025;48.138;11.428;2023-03-23T06:52:02;95011.28;;;11.27;59.51
38225;BME280;24025;48.138;11.428;2023-03-23T06:54:33;95001.00;;;11.33;59.39
38225;BME280;24025;48.138;11.428;2023-03-23T06:57:04;95011.31;;;11.42;59.37
38225;BME280;24025;48.138;11.428;2023-03-23T06:59:35;95007.13;;;11.55;58.78
38225;BME280;24025;48.138;11.428;2023-03-23T07:02:05;95009.78;;;11.66;58.39
38225;BME280;24025;48.138;11.428;2023-03-23T07:04:37;95010.94;;;11.79;57.25
38225;BME280;24025;48.138;11.428;2023-03-23T07:07:09;95020.50;;;11.90;56.46
38225;BME280;24025;48.138;11.428;2023-03-23T07:09:41;95018.97;;;12.04;56.39
38225;BME280;24025;48.138;11.428;2023-03-23T07:12:12;95021.63;;;12.18;55.82
38225;BME280;24025;48.138;11.428;2023-03-23T07:14:44;95020.09;;;12.31;55.39
38225;BME280;24025;48.138;11.428;2023-03-23T07:17:15;95017.78;;;12.40;54.86
38225;BME280;24025;48.138;11.428;2023-03-23T07:19:45;95018.88;;;12.54;54.71
38225;BME280;24025;48.138;11.428;2023-03-23T07:22:16;95015.81;;;12.59;54.26
38225;BME280;24025;48.138;11.428;2023-03-23T07:24:47;95021.47;;;12.71;54.21
38225;BME280;24025;48.138;11.428;2023-03-23T07:27:17;95021.06;;;12.80;54.13
38225;BME280;24025;48.138;11.428;2023-03-23T07:29:48;95020.28;;;12.87;53.32
38225;BME280;24025;48.138;11.428;2023-03-23T07:32:18;95018.34;;;12.94;53.17
38225;BME280;24025;48.138;11.428;2023-03-23T07:34:49;95016.75;;;13.04;52.81
38225;BME280;24025;48.138;11.428;2023-03-23T07:37:19;95017.84;;;13.14;52.75
38225;BME280;24025;48.138;11.428;2023-03-23T07:39:50;95013.66;;;13.20;52.66
38225;BME280;24025;48.138;11.428;2023-03-23T07:42:21;95009.38;;;13.29;52.26
38225;BME280;24025;48.138;11.428;2023-03-23T07:44:51;95008.56;;;13.40;52.47
38225;BME280;24025;48.138;11.428;2023-03-23T07:47:22;95003.16;;;13.47;52.45
38225;BME280;24025;48.138;11.428;2023-03-23T07:49:53;95006.19;;;13.52;51.22
38225;BME280;24025;48.138;11.428;2023-03-23T07:52:23;95000.75;;;13.59;51.30
38225;BME280;24025;48.138;11.428;2023-03-23T07:54:54;95010.34;;;13.60;50.77
38225;BME280;24025;48.138;11.428;2023-03-23T07:57:25;95005.72;;;13.65;51.24
38225;BME280;24025;48.138;11.428;2023-03-23T07:59:55;95009.50;;;13.67;51.21
38225;BME280;24025;48.138;11.428;2023-03-23T08:02:26;95008.00;;;13.66;50.46
38225;BME280;24025;48.138;11.428;2023-03-23T08:04:57;95003.38;;;13.70;51.19
38225;BME280;24025;48.138;11.428;2023-03-23T08:07:31;95003.75;;;13.69;50.16
38225;BME280;24025;48.138;11.428;2023-03-23T08:10:01;95013.66;;;13.79;50.92
38225;BME280;24025;48.138;11.428;2023-03-23T08:12:32;95007.84;;;13.84;50.67
38225;BME280;24025;48.138;11.428;2023-03-23T08:15:05;95006.28;;;13.86;50.49
38225;BME280;24025;48.138;11.428;2023-03-23T08:17:36;95011.66;;;13.86;50.59
38225;BME280;24025;48.138;11.428;2023-03-23T08:20:08;95016.00;;;13.73;49.38
38225;BME280;24025;48.138;11.428;2023-03-23T08:22:44;95018.19;;;13.85;49.38
38225;BME280;24025;48.138;11.428;2023-03-23T08:25:15;95017.75;;;13.91;49.55
38225;BME280;24025;48.138;11.428;2023-03-23T08:27:47;95020.38;;;13.98;49.83
38225;BME280;24025;48.138;11.428;2023-03-23T08:30:19;95016.84;;;14.08;49.39
38225;BME280;24025;48.138;11.428;2023-03-23T08:32:51;95016.38;;;14.16;49.04
38225;BME280;24025;48.138;11.428;2023-03-23T08:35:23;95022.00;;;14.29;49.10
38225;BME280;24025;48.138;11.428;2023-03-23T08:37:54;95028.50;;;14.32;48.73
38225;BME280;24025;48.138;11.428;2023-03-23T08:40:26;95040.28;;;14.45;49.00
38225;BME280;24025;48.138;11.428;2023-03-23T08:42:57;95033.69;;;14.53;48.97
38225;BME280;24025;48.138;11.428;2023-03-23T08:45:28;95049.03;;;14.53;49.20
38225;BME280;24025;48.138;11.428;2023-03-23T08:47:58;95049.25;;;14.65;48.74
38225;BME280;24025;48.138;11.428;2023-03-23T08:50:29;95056.53;;;14.68;48.60
38225;BME280;24025;48.138;11.428;2023-03-23T08:53:01;95058.16;;;14.59;48.17
38225;BME280;24025;48.138;11.428;2023-03-23T08:55:31;95053.31;;;14.81;48.63
38225;BME280;24025;48.138;11.428;2023-03-23T08:58:02;95051.41;;;14.81;48.19
38225;BME280;24025;48.138;11.428;2023-03-23T09:00:34;95053.03;;;14.71;47.84
38225;BME280;24025;48.138;11.428;2023-03-23T09:03:05;95058.56;;;14.91;47.95
38225;BME280;24025;48.138;11.428;2023-03-23T09:05:35;95060.06;;;14.96;47.75
38225;BME280;24025;48.138;11.428;2023-03-23T09:08:07;95061.97;;;15.26;47.05
38225;BME280;24025;48.138;11.428;2023-03-23T09:10:38;95062.72;;;15.30;47.02
38225;BME280;24025;48.138;11.428;2023-03-23T09:13:09;95068.09;;;15.57;46.64
38225;BME280;24025;48.138;11.428;2023-03-23T09:15:39;95077.63;;;15.65;46.94
38225;BME280;24025;48.138;11.428;2023-03-23T09:18:10;95075.69;;;15.66;46.19
38225;BME280;24025;48.138;11.428;2023-03-23T09:20:41;95077.88;;;15.74;46.02
38225;BME280;24025;48.138;11.428;2023-03-23T09:23:12;95081.81;;;15.93;45.51
38225;BME280;24025;48.138;11.428;2023-03-23T09:25:43;95087.91;;;15.97;45.31
38225;BME280;24025;48.138;11.428;2023-03-23T09:28:13;95095.81;;;16.08;45.13
38225;BME280;24025;48.138;11.428;2023-03-23T09:30:44;95101.97;;;16.08;44.66
38225;BME280;24025;48.138;11.428;2023-03-23T09:33:16;95098.78;;;16.13;44.31
38225;BME280;24025;48.138;11.428;2023-03-23T09:35:47;95102.22;;;16.18;44.71
38225;BME280;24025;48.138;11.428;2023-03-23T09:38:17;95096.59;;;16.32;44.69
38225;BME280;24025;48.138;11.428;2023-03-23T09:40:56;95098.50;;;16.31;43.61
38225;BME280;24025;48.138;11.428;2023-03-23T09:49:12;95089.53;;;16.85;43.48
38225;BME280;24025;48.138;11.428;2023-03-23T09:51:54;95085.97;;;16.91;42.56
38225;BME280;24025;48.138;11.428;2023-03-23T09:54:30;95090.72;;;17.04;42.04
38225;BME280;24025;48.138;11.428;2023-03-23T09:57:03;95091.00;;;17.29;42.24
38225;BME280;24025;48.138;11.428;2023-03-23T09:59:56;95091.28;;;17.15;42.04
38225;BME280;24025;48.138;11.428;2023-03-23T10:02:36;95085.06;;;17.18;41.74
38225;BME280;24025;48.138;11.428;2023-03-23T10:08:18;95099.72;;;17.17;41.74
38225;BME280;24025;48.138;11.428;2023-03-23T10:19:38;95091.13;;;17.02;41.17
38225;BME280;24025;48.138;11.428;2023-03-23T10:22:12;95095.63;;;17.09;41.05
38225;BME280;24025;48.138;11.428;2023-03-23T10:24:59;95098.53;;;17.18;40.69
38225;BME280;24025;48.138;11.428;2023-03-23T10:27:45;95100.59;;;17.30;41.02
38225;BME280;24025;48.138;11.428;2023-03-23T10:30:22;95105.25;;;17.10;40.43
38225;BME280;24025;48.138;11.428;2023-03-23T10:33:02;95104.25;;;17.20;40.35
38225;BME280;24025;48.138;11.428;2023-03-23T10:35:38;95095.91;;;17.14;40.18
38225;BME280;24025;48.138;11.428;2023-03-23T10:38:19;95096.03;;;17.27;40.23
38225;BME280;24025;48.138;11.428;2023-03-23T10:41:11;95095.56;;;17.32;39.90
38225;BME280;24025;48.138;11.428;2023-03-23T10:43:42;95100.03;;;17.39;40.42
38225;BME280;24025;48.138;11.428;2023-03-23T10:48:54;95096.66;;;17.35;40.23
38225;BME280;24025;48.138;11.428;2023-03-23T10:51:34;95097.72;;;17.41;40.14
38225;BME280;24025;48.138;11.428;2023-03-23T10:54:06;95101.00;;;17.28;40.67
38225;BME280;24025;48.138;11.428;2023-03-23T10:56:44;95096.38;;;17.29;40.77
38225;BME280;24025;48.138;11.428;2023-03-23T10:59:19;95093.06;;;17.21;40.43
38225;BME280;24025;48.138;11.428;2023-03-23T11:01:52;95100.31;;;17.05;40.62
38225;BME280;24025;48.138;11.428;2023-03-23T11:04:24;95097.19;;;16.86;40.95
38225;BME280;24025;48.138;11.428;2023-03-23T11:06:59;95092.22;;;17.05;41.11
38225;BME280;24025;48.138;11.428;2023-03-23T11:09:40;95092.44;;;17.14;41.01
38225;BME280;24025;48.138;11.428;2023-03-23T11:12:21;95100.69;;;17.07;41.17
38225;BME280;24025;48.138;11.428;2023-03-23T11:15:04;95098.88;;;17.00;41.55
38225;BME280;24025;48.138;11.428;2023-03-23T11:17:40;95099.63;;;17.20;41.47
38225;BME280;24025;48.138;11.428;2023-03-23T11:20:12;95091.28;;;17.35;41.19
38225;BME280;24025;48.138;11.428;2023-03-23T11:22:43;95093.69;;;17.29;41.03
38225;BME280;24025;48.138;11.428;2023-03-23T11:25:14;95071.34;;;17.48;41.19
38225;BME280;24025;48.138;11.428;2023-03-23T11:27:45;95078.91;;;17.73;40.80
38225;BME280;24025;48.138;11.428;2023-03-23T11:30:25;95084.25;;;17.93;40.07
38225;BME280;24025;48.138;11.428;2023-03-23T11:33:01;95073.66;;;18.02;39.74
38225;BME280;24025;48.138;11.428;2023-03-23T11:35:32;95077.28;;;17.96;39.85
38225;BME280;24025;48.138;11.428;2023-03-23T11:38:02;95080.47;;;18.23;39.44
38225;BME280;24025;48.138;11.428;2023-03-23T11:40:44;95071.25;;;18.37;38.79
38225;BME280;24025;48.138;11.428;2023-03-23T11:43:20;95075.56;;;18.51;38.68
38225;BME280;24025;48.138;11.428;2023-03-23T11:46:05;95072.75;;;18.54;38.04
38225;BME280;24025;48.138;11.428;2023-03-23T11:48:57;95074.38;;;18.35;38.01
38225;BME280;24025;48.138;11.428;2023-03-23T11:54:33;95070.19;;;18.80;37.64
38225;BME280;24025;48.138;11.428;2023-03-23T11:57:07;95063.34;;;18.91;37.25
38225;BME280;24025;48.138;11.428;2023-03-23T11:59:39;95061.34;;;19.08;37.42
38225;BME280;24025;48.138;11.428;2023-03-23T12:02:42;95056.97;;;18.98;36.94
38225;BME280;24025;48.138;11.428;2023-03-23T12:05:32;95053.13;;;19.24;36.69
38225;BME280;24025;48.138;11.428;2023-03-23T12:11:23;95057.44;;;19.64;35.08
38225;BME280;24025;48.138;11.428;2023-03-23T12:14:16;95056.13;;;20.06;35.30
38225;BME280;24025;48.138;11.428;2023-03-23T12:17:00;95059.91;;;20.09;34.56
38225;BME280;24025;48.138;11.428;2023-03-23T12:22:40;95055.13;;;19.49;34.38
38225;BME280;24025;48.138;11.428;2023-03-23T12:31:11;95056.69;;;19.09;34.85
38225;BME280;24025;48.138;11.428;2023-03-23T12:34:07;95046.63;;;19.09;35.25
38225;BME280;24025;48.138;11.428;2023-03-23T12:48:02;95044.16;;;18.73;35.14
38225;BME280;24025;48.138;11.428;2023-03-23T12:53:33;95044.16;;;18.57;35.06
38225;BME280;24025;48.138;11.428;2023-03-23T12:58:44;95045.88;;;18.34;35.26
38225;BME280;24025;48.138;11.428;2023-03-23T13:01:20;95042.94;;;18.29;35.23
38225;BME280;24025;48.138;11.428;2023-03-23T13:03:59;95039.56;;;18.25;35.31
38225;BME280;24025;48.138;11.428;2023-03-23T13:11:56;95020.09;;;18.01;35.20
38225;BME280;24025;48.138;11.428;2023-03-23T13:15:17;95040.31;;;17.93;35.94
38225;BME280;24025;48.138;11.428;2023-03-23T13:18:03;95021.53;;;18.05;35.98
38225;BME280;24025;48.138;11.428;2023-03-23T13:20:49;95029.31;;;18.49;35.66
38225;BME280;24025;48.138;11.428;2023-03-23T13:23:29;95022.63;;;18.70;35.50
38225;BME280;24025;48.138;11.428;2023-03-23T13:26:09;95029.84;;;19.02;35.15
38225;BME280;24025;48.138;11.428;2023-03-23T13:28:55;95040.13;;;18.65;37.89
38225;BME280;24025;48.138;11.428;2023-03-23T13:31:37;95032.38;;;19.09;37.57
38225;BME280;24025;48.138;11.428;2023-03-23T13:36:54;95027.34;;;18.94;38.02
38225;BME280;24025;48.138;11.428;2023-03-23T13:39:28;95031.81;;;19.01;38.50
38225;BME280;24025;48.138;11.428;2023-03-23T13:49:57;95025.03;;;18.35;39.32
38225;BME280;24025;48.138;11.428;2023-03-23T13:52:37;95028.78;;;18.54;39.41
38225;BME280;24025;48.138;11.428;2023-03-23T14:00:49;95025.56;;;18.30;39.80
38225;BME280;24025;48.138;11.428;2023-03-23T14:03:35;95025.72;;;18.39;38.64
38225;BME280;24025;48.138;11.428;2023-03-23T14:06:14;95031.69;;;18.47;37.72
38225;BME280;24025;48.138;11.428;2023-03-23T14:08:50;95022.63;;;18.53;37.58
38225;BME280;24025;48.138;11.428;2023-03-23T14:11:27;95017.69;;;18.35;37.62
38225;BME280;24025;48.138;11.428;2023-03-23T14:14:14;95015.53;;;18.30;37.84
38225;BME280;24025;48.138;11.428;2023-03-23T14:16:50;95015.44;;;18.18;37.96
38225;BME280;24025;48.138;11.428;2023-03-23T14:19:27;95019.59;;;17.90;39.04
38225;BME280;24025;48.138;11.428;2023-03-23T14:22:01;95017.91;;;17.79;39.16
38225;BME280;24025;48.138;11.428;2023-03-23T14:24:39;95015.88;;;17.67;39.54
38225;BME280;24025;48.138;11.428;2023-03-23T14:27:13;95011.00;;;17.78;39.35
38225;BME280;24025;48.138;11.428;2023-03-23T14:29:44;95018.88;;;17.69;39.53
38225;BME280;24025;48.138;11.428;2023-03-23T14:32:17;95009.59;;;17.54;39.81
38225;BME280;24025;48.138;11.428;2023-03-23T14:34:50;95020.81;;;17.52;39.98
38225;BME280;24025;48.138;11.428;2023-03-23T14:37:21;95022.41;;;17.50;40.03
38225;BME280;24025;48.138;11.428;2023-03-23T14:39:53;95014.91;;;17.41;40.24
38225;BME280;24025;48.138;11.428;2023-03-23T14:42:31;95018.00;;;17.40;40.23
38225;BME280;24025;48.138;11.428;2023-03-23T14:45:04;95015.53;;;17.29;40.68
38225;BME280;24025;48.138;11.428;2023-03-23T14:47:40;95018.06;;;17.36;40.57
38225;BME280;24025;48.138;11.428;2023-03-23T14:53:03;95018.25;;;17.09;41.33
38225;BME280;24025;48.138;11.428;2023-03-23T14:55:42;95024.28;;;16.97;41.73
38225;BME280;24025;48.138;11.428;2023-03-23T14:58:15;95032.84;;;16.92;42.00
38225;BME280;24025;48.138;11.428;2023-03-23T15:00:58;95023.03;;;17.02;41.97
38225;BME280;24025;48.138;11.428;2023-03-23T15:03:35;95021.94;;;16.99;42.18